Time;durP1;ratioP1;P1;durP2;ratioP2;P2;SDS_P1;SDS_P2;PMS_P1;PMS_P2;Temp;Humidity;BMP_temperature;BMP_pressure;BME280_temperature;BME280_humidity;BME280_pressure;Samples;Min_cycle;Max_cycle;Signal;HPM_P1;HPM_P2
2022/11/21 00:00:00;;;;;;;40.27;37.27;;;2.00;99.90;;;;;;5082962;28;20398;-55
2022/11/21 00:02:25;;;;;;;41.03;38.03;;;2.00;99.90;;;;;;5082405;28;20751;-57
2022/11/21 00:04:51;;;;;;;38.70;35.83;;;2.00;99.90;;;;;;5082521;28;20575;-57
2022/11/21 00:07:17;;;;;;;38.70;35.83;;;2.00;99.90;;;;;;5084198;28;20560;-54
2022/11/21 00:09:43;;;;;;;42.77;39.77;;;2.00;99.90;;;;;;5085228;28;20386;-57
2022/11/21 00:12:09;;;;;;;39.97;36.97;;;2.00;99.90;;;;;;5086594;28;20397;-53
2022/11/21 00:14:35;;;;;;;41.47;38.63;;;1.90;99.90;;;;;;5085959;28;20391;-58
2022/11/21 00:17:01;;;;;;;40.25;37.45;;;1.90;99.90;;;;;;5085875;28;20455;-57
2022/11/21 00:19:26;;;;;;;40.88;37.88;;;1.90;99.90;;;;;;5082562;28;20465;-54
2022/11/21 00:21:52;;;;;;;40.37;37.27;;;1.90;99.90;;;;;;5082372;28;20817;-58
2022/11/21 00:24:18;;;;;;;39.13;36.10;;;1.90;99.90;;;;;;5082505;28;20384;-58
2022/11/21 00:26:44;;;;;;;41.08;38.17;;;1.80;99.90;;;;;;5080138;28;20716;-59
2022/11/21 00:29:10;;;;;;;38.92;36.15;;;1.80;99.90;;;;;;5081993;28;20485;-59
2022/11/21 00:31:35;;;;;;;39.28;36.42;;;1.80;99.90;;;;;;5082140;28;20378;-57
2022/11/21 00:34:01;;;;;;;39.78;36.88;;;1.80;99.90;;;;;;5084073;28;20689;-58
2022/11/21 00:36:27;;;;;;;38.97;36.22;;;1.80;99.90;;;;;;5084553;28;20512;-59
2022/11/21 00:38:53;;;;;;;39.80;36.85;;;1.80;99.90;;;;;;5082264;28;20409;-58
2022/11/21 00:41:19;;;;;;;36.50;33.90;;;1.80;99.90;;;;;;5085513;28;20405;-57
2022/11/21 00:43:45;;;;;;;40.50;37.80;;;1.80;99.90;;;;;;5087205;28;20465;-58
2022/11/21 00:46:11;;;;;;;39.20;36.40;;;1.80;99.90;;;;;;5086449;28;20778;-59
2022/11/21 00:48:37;;;;;;;37.17;34.47;;;1.80;99.90;;;;;;5087796;28;20408;-59
2022/11/21 00:51:03;;;;;;;37.40;34.67;;;1.80;99.90;;;;;;5087355;28;20386;-56
2022/11/21 00:53:29;;;;;;;38.20;35.57;;;1.70;99.90;;;;;;5087953;28;20378;-59
2022/11/21 00:55:55;;;;;;;38.95;36.22;;;1.70;99.90;;;;;;5088501;28;20410;-58
2022/11/21 00:58:20;;;;;;;37.17;34.57;;;1.80;99.90;;;;;;5090134;28;20646;-56
2022/11/21 01:00:47;;;;;;;37.75;35.13;;;1.70;99.90;;;;;;5088428;28;20774;-55
2022/11/21 01:03:12;;;;;;;36.67;34.07;;;1.70;99.90;;;;;;5088511;28;20847;-59
2022/11/21 01:05:38;;;;;;;38.00;35.40;;;1.70;99.90;;;;;;5088669;28;20386;-59
2022/11/21 01:08:05;;;;;;;36.72;33.97;;;1.60;99.90;;;;;;5087728;28;20398;-57
2022/11/21 01:10:32;;;;;;;36.67;34.07;;;1.60;99.90;;;;;;5088237;28;20468;-59
2022/11/21 01:12:58;;;;;;;37.40;34.80;;;1.60;99.90;;;;;;5089268;28;20390;-55
2022/11/21 01:15:24;;;;;;;37.40;34.70;;;1.60;99.90;;;;;;5088998;28;20378;-57
2022/11/21 01:17:50;;;;;;;37.78;35.08;;;1.60;99.90;;;;;;5088852;28;20378;-55
2022/11/21 01:20:16;;;;;;;38.33;35.63;;;1.60;99.90;;;;;;5089099;28;20680;-57
2022/11/21 01:22:43;;;;;;;35.28;32.75;;;1.60;99.90;;;;;;5090219;28;20523;-55
2022/11/21 01:25:09;;;;;;;37.38;34.78;;;1.60;99.90;;;;;;5090301;28;20382;-55
2022/11/21 01:27:35;;;;;;;38.17;35.28;;;1.60;99.90;;;;;;5089826;28;20433;-59
2022/11/21 01:30:01;;;;;;;36.85;34.15;;;1.60;99.90;;;;;;5089720;28;20382;-59
2022/11/21 01:32:27;;;;;;;37.60;34.97;;;1.50;99.90;;;;;;5088995;28;20397;-58
2022/11/21 01:34:53;;;;;;;37.13;34.53;;;1.50;99.90;;;;;;5088799;28;20382;-57
2022/11/21 01:37:18;;;;;;;34.93;32.47;;;1.50;99.90;;;;;;5088340;28;20575;-55
2022/11/21 01:39:44;;;;;;;37.73;35.13;;;1.60;99.90;;;;;;5089718;28;20385;-59
2022/11/21 01:42:12;;;;;;;34.90;32.40;;;1.50;99.90;;;;;;5089011;28;20412;-59
2022/11/21 01:44:52;;;;;;;37.30;34.70;;;1.50;99.90;;;;;;5089151;28;20394;-58
2022/11/21 01:47:19;;;;;;;38.37;35.67;;;1.50;99.90;;;;;;5089602;28;20494;-58
2022/11/21 01:49:45;;;;;;;38.63;35.90;;;1.50;99.90;;;;;;5090743;28;20486;-58
2022/11/21 01:52:18;;;;;;;34.30;31.97;;;1.50;99.90;;;;;;5090256;28;20389;-59
2022/11/21 01:55:04;;;;;;;39.42;36.72;;;1.50;99.90;;;;;;5089785;28;20647;-58
2022/11/21 01:57:40;;;;;;;39.50;36.65;;;1.40;99.90;;;;;;5090165;28;20422;-55
2022/11/21 02:00:17;;;;;;;36.45;33.90;;;1.40;99.90;;;;;;5092240;28;20389;-59
2022/11/21 02:02:51;;;;;;;38.03;35.42;;;1.40;99.90;;;;;;5090669;28;20390;-58
2022/11/21 02:05:22;;;;;;;36.47;34.07;;;1.40;99.90;;;;;;5091086;28;20813;-54
2022/11/21 02:07:54;;;;;;;37.25;34.85;;;1.40;99.90;;;;;;5092876;28;20580;-56
2022/11/21 02:10:21;;;;;;;33.85;31.55;;;1.30;99.90;;;;;;5091896;28;20381;-56
2022/11/21 02:12:51;;;;;;;33.22;30.95;;;1.30;99.90;;;;;;5091007;28;20420;-58
2022/11/21 02:15:20;;;;;;;34.20;31.98;;;1.30;99.90;;;;;;5088723;28;20929;-58
2022/11/21 02:17:46;;;;;;;33.58;31.27;;;1.30;99.90;;;;;;5088908;28;20386;-56
2022/11/21 02:20:17;;;;;;;32.00;29.80;;;1.30;99.90;;;;;;5088356;28;20601;-58
2022/11/21 02:23:07;;;;;;;31.73;29.52;;;1.20;99.90;;;;;;5086233;28;20389;-57
2022/11/21 02:25:38;;;;;;;30.73;28.63;;;1.20;99.90;;;;;;5088192;28;20391;-57
2022/11/21 02:28:06;;;;;;;31.52;29.35;;;1.30;99.90;;;;;;5091975;28;20410;-57
2022/11/21 02:30:35;;;;;;;31.63;29.50;;;1.20;99.90;;;;;;5093596;28;20421;-58
2022/11/21 02:33:01;;;;;;;28.67;26.67;;;1.20;99.90;;;;;;5095001;28;20476;-59
2022/11/21 02:35:27;;;;;;;30.13;28.13;;;1.30;99.90;;;;;;5092339;28;20473;-59
2022/11/21 02:38:00;;;;;;;31.55;29.45;;;1.30;99.90;;;;;;5092517;28;20421;-56
2022/11/21 02:40:31;;;;;;;29.67;27.67;;;1.20;99.90;;;;;;5091985;28;20706;-57
2022/11/21 02:43:11;;;;;;;31.67;29.48;;;1.20;99.90;;;;;;5091740;28;20496;-55
2022/11/21 02:45:43;;;;;;;31.73;29.63;;;1.20;99.90;;;;;;5091972;28;20400;-58
2022/11/21 02:48:09;;;;;;;31.00;29.00;;;1.20;99.90;;;;;;5093257;28;20394;-58
2022/11/21 02:50:37;;;;;;;30.80;28.80;;;1.20;99.90;;;;;;5092976;28;20390;-58
2022/11/21 02:53:05;;;;;;;30.77;28.77;;;1.20;99.90;;;;;;5092264;28;20382;-58
2022/11/21 02:55:31;;;;;;;30.33;28.42;;;1.30;99.90;;;;;;5093133;28;20439;-58
2022/11/21 02:57:57;;;;;;;32.45;30.35;;;1.30;99.90;;;;;;5093197;28;20394;-53
2022/11/21 03:00:24;;;;;;;28.92;27.08;;;1.30;99.90;;;;;;5092979;28;20394;-58
2022/11/21 03:02:50;;;;;;;28.40;26.45;;;1.30;99.90;;;;;;5093368;28;20418;-58
2022/11/21 03:05:18;;;;;;;27.80;26.00;;;1.30;99.90;;;;;;5094171;28;20421;-58
2022/11/21 03:07:44;;;;;;;30.48;28.42;;;1.30;99.90;;;;;;5095536;28;20405;-55
2022/11/21 03:10:10;;;;;;;30.52;28.52;;;1.20;99.90;;;;;;5095199;28;20461;-57
2022/11/21 03:12:37;;;;;;;30.13;28.17;;;1.20;99.90;;;;;;5093888;28;20459;-56
2022/11/21 03:15:04;;;;;;;27.88;25.98;;;1.30;99.90;;;;;;5093544;28;20375;-59
2022/11/21 03:17:30;;;;;;;28.45;26.50;;;1.20;99.90;;;;;;5092675;28;20396;-59
2022/11/21 03:19:56;;;;;;;30.23;28.33;;;1.20;99.90;;;;;;5091726;28;20378;-57
2022/11/21 03:22:23;;;;;;;29.17;27.38;;;1.20;99.90;;;;;;5092445;28;20450;-57
2022/11/21 03:24:49;;;;;;;30.35;28.33;;;1.20;99.90;;;;;;5093164;28;20657;-59
2022/11/21 03:27:15;;;;;;;28.53;26.73;;;1.10;99.90;;;;;;5091913;28;20459;-57
2022/11/21 03:29:41;;;;;;;27.85;26.05;;;1.10;99.90;;;;;;5092748;28;20386;-57
2022/11/21 03:32:07;;;;;;;29.90;27.92;;;1.00;99.90;;;;;;5093080;28;20396;-58
2022/11/21 03:34:33;;;;;;;27.88;25.90;;;1.10;99.90;;;;;;5092908;28;20389;-54
2022/11/21 03:36:58;;;;;;;28.80;26.90;;;1.00;99.90;;;;;;5092288;28;20378;-58
2022/11/21 03:39:24;;;;;;;30.35;28.30;;;1.10;99.90;;;;;;5093074;28;20505;-57
2022/11/21 03:41:50;;;;;;;30.33;28.33;;;1.00;99.90;;;;;;5094379;28;20405;-59
2022/11/21 03:44:16;;;;;;;30.23;28.35;;;1.00;99.90;;;;;;5093951;28;20396;-57
2022/11/21 03:46:44;;;;;;;28.15;26.35;;;1.00;99.90;;;;;;5093509;28;20388;-58
2022/11/21 03:49:11;;;;;;;28.35;26.55;;;1.10;99.90;;;;;;5092063;28;20811;-58
2022/11/21 03:51:37;;;;;;;29.13;27.25;;;1.10;99.90;;;;;;5092475;28;20382;-59
2022/11/21 03:54:04;;;;;;;28.95;27.10;;;1.10;99.90;;;;;;5092279;28;20424;-57
2022/11/21 03:56:30;;;;;;;29.67;27.77;;;1.10;99.90;;;;;;5090915;28;20718;-58
2022/11/21 03:58:56;;;;;;;28.40;26.60;;;1.10;99.90;;;;;;5091710;28;20394;-59
2022/11/21 04:01:22;;;;;;;27.63;25.83;;;1.10;99.90;;;;;;5091957;28;20435;-57
2022/11/21 04:03:48;;;;;;;31.42;29.42;;;1.10;99.90;;;;;;5093569;28;20480;-58
2022/11/21 04:06:17;;;;;;;31.27;29.27;;;1.00;99.90;;;;;;5093199;28;20378;-60
2022/11/21 04:08:43;;;;;;;28.08;26.27;;;1.00;99.90;;;;;;5092516;28;20402;-58
2022/11/21 04:11:10;;;;;;;28.45;26.52;;;1.10;99.90;;;;;;5094401;28;20400;-58
2022/11/21 04:13:36;;;;;;;27.10;25.30;;;1.00;99.90;;;;;;5092926;28;20476;-57
2022/11/21 04:16:03;;;;;;;27.55;25.65;;;1.00;99.90;;;;;;5094272;28;20374;-58
2022/11/21 04:18:29;;;;;;;30.42;28.33;;;1.00;99.90;;;;;;5092773;28;20484;-59
2022/11/21 04:20:58;;;;;;;31.38;29.13;;;1.00;99.90;;;;;;5092967;28;20401;-59
2022/11/21 04:23:25;;;;;;;35.50;33.13;;;0.90;99.90;;;;;;5093384;28;20392;-57
2022/11/21 04:25:51;;;;;;;32.53;30.27;;;0.80;99.90;;;;;;5091254;28;20474;-59
2022/11/21 04:28:17;;;;;;;32.70;30.40;;;0.90;99.90;;;;;;5090566;28;20418;-58
2022/11/21 04:30:43;;;;;;;33.47;31.13;;;0.90;99.90;;;;;;5090818;28;20437;-57
2022/11/21 04:33:14;;;;;;;36.17;33.20;;;0.90;99.90;;;;;;5092450;28;20679;-57
2022/11/21 04:35:41;;;;;;;37.53;34.90;;;0.80;99.90;;;;;;5092254;28;20374;-58
2022/11/21 04:38:06;;;;;;;41.53;38.67;;;0.70;99.90;;;;;;5091702;28;20417;-59
2022/11/21 04:40:33;;;;;;;39.87;37.03;;;0.60;99.90;;;;;;5093205;28;20450;-59
2022/11/21 04:42:59;;;;;;;41.20;38.17;;;0.60;99.90;;;;;;5092259;28;20398;-57
2022/11/21 04:45:25;;;;;;;41.67;38.72;;;0.50;99.90;;;;;;5093795;28;20390;-56
2022/11/21 04:47:51;;;;;;;39.53;36.63;;;0.60;99.90;;;;;;5093331;28;20404;-54
2022/11/21 04:50:18;;;;;;;40.43;37.43;;;0.50;99.90;;;;;;5092474;28;20377;-58
2022/11/21 04:52:52;;;;;;;39.92;37.05;;;0.50;99.90;;;;;;5093057;28;20397;-58
2022/11/21 04:55:19;;;;;;;41.05;38.28;;;0.50;99.90;;;;;;5092973;28;20770;-58
2022/11/21 04:57:45;;;;;;;41.00;38.20;;;0.50;99.90;;;;;;5092123;28;20689;-59
2022/11/21 05:00:13;;;;;;;39.20;36.30;;;0.50;99.90;;;;;;5092015;28;20390;-58
2022/11/21 05:02:38;;;;;;;41.97;38.90;;;0.50;99.90;;;;;;5090507;28;20529;-57
2022/11/21 05:05:05;;;;;;;41.13;38.33;;;0.50;99.90;;;;;;5091872;28;20378;-59
2022/11/21 05:07:30;;;;;;;39.45;36.72;;;0.50;99.90;;;;;;5089925;28;20809;-59
2022/11/21 05:09:56;;;;;;;40.85;37.85;;;0.50;99.90;;;;;;5090443;28;20382;-57
2022/11/21 05:15:08;;;;;;;40.10;37.30;;;0.50;99.90;;;;;;5087596;28;20634;-58
2022/11/21 05:17:34;;;;;;;39.00;36.40;;;0.60;99.90;;;;;;5085561;28;20627;-58
2022/11/21 05:19:59;;;;;;;40.55;37.65;;;0.70;99.90;;;;;;5083667;28;20378;-56
2022/11/21 05:22:25;;;;;;;39.47;36.83;;;0.60;99.90;;;;;;5084682;28;20378;-57
2022/11/21 05:24:51;;;;;;;36.97;34.37;;;0.60;99.90;;;;;;5082679;28;20517;-58
2022/11/21 05:27:17;;;;;;;38.10;35.53;;;0.60;99.90;;;;;;5084187;28;20458;-57
2022/11/21 05:29:43;;;;;;;37.73;35.10;;;0.60;99.90;;;;;;5087502;28;20382;-57
2022/11/21 05:32:08;;;;;;;38.63;35.83;;;0.60;99.90;;;;;;5086765;28;20393;-58
2022/11/21 05:34:34;;;;;;;41.30;38.07;;;0.50;99.90;;;;;;5087764;28;20466;-59
2022/11/21 05:37:00;;;;;;;41.73;38.83;;;0.40;99.90;;;;;;5086906;28;20393;-60
2022/11/21 05:39:26;;;;;;;39.43;36.63;;;0.40;99.90;;;;;;5085977;28;20444;-57
2022/11/21 05:41:52;;;;;;;40.97;38.05;;;0.40;99.90;;;;;;5088385;28;20770;-57
2022/11/21 05:44:18;;;;;;;40.75;37.72;;;0.50;99.90;;;;;;5089092;28;20679;-58
2022/11/21 05:46:45;;;;;;;40.78;37.60;;;0.50;99.90;;;;;;5088501;28;20551;-59
2022/11/21 05:49:11;;;;;;;41.65;38.53;;;0.40;99.90;;;;;;5088578;28;20445;-59
2022/11/21 05:51:37;;;;;;;42.03;38.95;;;0.20;99.90;;;;;;5089037;28;20378;-59
2022/11/21 05:54:04;;;;;;;43.40;40.22;;;0.20;99.90;;;;;;5085803;28;20439;-59
2022/11/21 05:56:30;;;;;;;41.20;38.20;;;0.10;99.90;;;;;;5084538;28;20389;-56
2022/11/21 05:58:57;;;;;;;44.33;41.03;;;0.00;99.90;;;;;;5083449;28;20394;-57
2022/11/21 06:04:08;;;;;;;41.40;38.30;;;-0.20;99.90;;;;;;5089833;28;20376;-58
2022/11/21 06:06:35;;;;;;;43.90;40.40;;;-0.30;99.90;;;;;;5089946;28;20378;-57
2022/11/21 06:09:01;;;;;;;44.63;41.05;;;-0.30;99.90;;;;;;5090118;28;20412;-56
2022/11/21 06:11:27;;;;;;;45.27;41.90;;;-0.30;99.90;;;;;;5088940;28;20450;-58
2022/11/21 06:13:53;;;;;;;43.03;39.67;;;-0.30;99.90;;;;;;5087811;28;20447;-58
2022/11/21 06:16:19;;;;;;;44.97;41.60;;;-0.30;99.90;;;;;;5089337;28;20377;-57
2022/11/21 06:18:47;;;;;;;47.97;44.33;;;-0.20;99.90;;;;;;5087723;28;20386;-58
2022/11/21 06:21:21;;;;;;;48.08;44.45;;;-0.10;99.90;;;;;;5087543;28;20681;-59
2022/11/21 06:23:50;;;;;;;48.25;44.45;;;-0.10;99.90;;;;;;5085004;28;20419;-58
2022/11/21 06:26:18;;;;;;;50.58;46.47;;;-0.30;99.90;;;;;;5084953;28;20549;-57
2022/11/21 06:28:44;;;;;;;49.60;45.90;;;-0.20;99.90;;;;;;5083175;28;20410;-58
2022/11/21 06:31:12;;;;;;;48.97;45.17;;;-0.10;99.90;;;;;;5083208;28;20668;-58
2022/11/21 06:33:38;;;;;;;50.40;46.42;;;0.00;99.90;;;;;;5084551;28;20381;-55
2022/11/21 06:36:06;;;;;;;50.27;46.57;;;0.00;99.90;;;;;;5083439;28;20389;-59
2022/11/21 06:38:32;;;;;;;51.15;47.35;;;0.10;99.90;;;;;;5084889;28;20410;-59
2022/11/21 06:41:05;;;;;;;49.97;46.10;;;0.10;99.90;;;;;;5085805;28;20525;-59
2022/11/21 06:43:31;;;;;;;52.40;48.30;;;0.10;99.90;;;;;;5087205;28;20421;-57
2022/11/21 06:45:57;;;;;;;51.70;47.53;;;0.20;99.90;;;;;;5086242;28;20432;-57
2022/11/21 06:48:23;;;;;;;54.87;50.17;;;0.00;99.90;;;;;;5084411;28;20662;-57
2022/11/21 06:50:50;;;;;;;53.40;48.97;;;-0.10;99.90;;;;;;5084364;28;20484;-59
2022/11/21 06:53:16;;;;;;;56.27;51.47;;;-0.20;99.90;;;;;;5084104;28;20870;-57
2022/11/21 06:55:41;;;;;;;52.47;47.97;;;-0.20;99.90;;;;;;5082190;28;20507;-57
2022/11/21 06:58:07;;;;;;;51.58;47.10;;;-0.30;99.90;;;;;;5081904;28;20390;-59
2022/11/21 07:00:33;;;;;;;49.05;44.35;;;-0.50;99.90;;;;;;5079571;28;20378;-56
2022/11/21 07:03:01;;;;;;;51.05;46.13;;;-0.50;99.90;;;;;;5078359;28;20513;-57
2022/11/21 07:05:27;;;;;;;53.33;48.50;;;-0.50;99.90;;;;;;5075435;28;20428;-60
2022/11/21 07:08:00;;;;;;;50.75;45.92;;;-0.60;99.90;;;;;;5073952;28;20406;-59
2022/11/21 07:10:26;;;;;;;53.92;49.05;;;-0.60;99.90;;;;;;5072334;28;20386;-60
2022/11/21 07:15:44;;;;;;;50.10;45.53;;;-0.50;99.90;;;;;;5072022;28;20682;-55
2022/11/21 07:18:11;;;;;;;52.58;48.00;;;-0.60;99.90;;;;;;5075197;28;20400;-57
2022/11/21 07:20:37;;;;;;;49.63;45.28;;;-0.70;99.90;;;;;;5079210;28;20537;-58
2022/11/21 07:23:03;;;;;;;51.15;46.58;;;-0.60;99.90;;;;;;5079350;28;20461;-56
2022/11/21 07:25:29;;;;;;;45.22;40.92;;;-0.70;99.90;;;;;;5079462;28;20388;-57
2022/11/21 07:27:58;;;;;;;48.42;44.22;;;-0.80;99.90;;;;;;5078277;28;20406;-54
2022/11/21 07:30:25;;;;;;;50.22;45.42;;;-0.70;99.90;;;;;;5081658;28;20382;-58
2022/11/21 07:33:05;;;;;;;48.80;44.45;;;-0.70;99.90;;;;;;5084346;28;20382;-57
2022/11/21 07:35:32;;;;;;;51.05;46.63;;;-0.60;99.90;;;;;;5083278;28;20756;-59
2022/11/21 07:37:58;;;;;;;52.47;48.05;;;-0.50;99.90;;;;;;5081008;28;20417;-57
2022/11/21 07:40:25;;;;;;;50.30;46.17;;;-0.60;99.90;;;;;;5080033;28;20686;-57
2022/11/21 07:42:51;;;;;;;48.22;44.25;;;-0.70;99.90;;;;;;5077177;28;20765;-58
2022/11/21 07:45:18;;;;;;;49.53;45.47;;;-0.60;99.90;;;;;;5076318;28;20824;-59
2022/11/21 07:47:44;;;;;;;52.00;47.88;;;-0.60;99.90;;;;;;5078901;28;20685;-58
2022/11/21 07:50:11;;;;;;;49.47;45.60;;;-0.50;99.90;;;;;;5078403;28;20396;-59
2022/11/21 07:52:37;;;;;;;49.00;45.10;;;-0.40;99.90;;;;;;5078540;28;20893;-59
2022/11/21 07:55:04;;;;;;;48.72;44.72;;;-0.30;99.90;;;;;;5076401;28;20401;-58
2022/11/21 07:57:31;;;;;;;50.70;46.40;;;-0.40;99.90;;;;;;5074734;28;20497;-59
2022/11/21 07:59:57;;;;;;;51.00;46.60;;;-0.40;99.90;;;;;;5071637;28;20416;-66
2022/11/21 08:02:27;;;;;;;52.80;47.92;;;-0.50;99.90;;;;;;5068803;28;20661;-58
2022/11/21 08:04:53;;;;;;;50.77;46.07;;;-0.50;99.90;;;;;;5068607;28;20744;-57
2022/11/21 08:07:21;;;;;;;52.78;48.08;;;-0.50;99.90;;;;;;5069763;28;20466;-60
2022/11/21 08:09:47;;;;;;;54.70;50.00;;;-0.50;99.90;;;;;;5065625;28;20374;-59
2022/11/21 08:12:13;;;;;;;49.10;44.95;;;-0.50;99.90;;;;;;5065023;28;20462;-59
2022/11/21 08:14:39;;;;;;;54.33;49.45;;;-0.40;99.90;;;;;;5064147;28;20532;-59
2022/11/21 08:17:06;;;;;;;58.50;53.38;;;-0.30;99.90;;;;;;5068144;28;21079;-59
2022/11/21 08:19:32;;;;;;;57.00;52.00;;;-0.20;99.90;;;;;;5065337;28;20520;-59
2022/11/21 08:21:58;;;;;;;50.05;45.28;;;-0.10;99.90;;;;;;5061963;28;20626;-60
2022/11/21 08:24:24;;;;;;;47.77;43.03;;;-0.10;99.90;;;;;;5061318;28;20409;-57
2022/11/21 08:26:50;;;;;;;47.67;43.28;;;-0.10;99.90;;;;;;5063713;28;20536;-60
2022/11/21 08:29:16;;;;;;;47.22;43.03;;;-0.20;99.90;;;;;;5065966;28;20621;-59
2022/11/21 08:31:44;;;;;;;45.78;41.47;;;-0.10;99.90;;;;;;5066222;28;20382;-57
2022/11/21 08:34:10;;;;;;;45.95;41.55;;;-0.10;99.90;;;;;;5064667;28;20385;-60
2022/11/21 08:36:36;;;;;;;47.10;42.65;;;-0.10;99.90;;;;;;5069301;28;20439;-60
2022/11/21 08:39:03;;;;;;;48.97;44.25;;;-0.10;99.90;;;;;;5067043;28;20402;-59
2022/11/21 08:44:13;;;;;;;47.53;43.33;;;-0.30;99.90;;;;;;5066307;28;20409;-57
2022/11/21 08:46:39;;;;;;;45.63;41.63;;;-0.20;99.90;;;;;;5067416;28;20627;-57
2022/11/21 08:49:07;;;;;;;44.45;40.80;;;-0.20;99.90;;;;;;5070622;28;20398;-59
2022/11/21 08:51:33;;;;;;;44.22;40.67;;;-0.40;99.90;;;;;;5072522;28;20649;-58
2022/11/21 08:53:59;;;;;;;45.20;41.58;;;-0.30;99.90;;;;;;5072191;28;20370;-59
2022/11/21 08:56:25;;;;;;;47.17;43.35;;;-0.30;99.90;;;;;;5070478;28;20423;-55
2022/11/21 08:58:51;;;;;;;45.10;41.70;;;-0.30;99.90;;;;;;5068460;28;20474;-59
2022/11/21 09:01:17;;;;;;;42.87;39.77;;;-0.10;99.90;;;;;;5068607;28;20398;-57
2022/11/21 09:03:43;;;;;;;43.25;39.63;;;0.10;99.90;;;;;;5067182;28;20390;-59
2022/11/21 09:06:09;;;;;;;43.83;40.40;;;0.40;99.90;;;;;;5068627;28;20382;-60
2022/11/21 09:08:34;;;;;;;42.10;38.90;;;0.70;99.90;;;;;;5069704;28;20471;-58
2022/11/21 09:11:06;;;;;;;40.15;37.13;;;1.30;99.90;;;;;;5069170;28;20422;-60
2022/11/21 09:13:33;;;;;;;44.97;41.70;;;2.00;99.90;;;;;;5069783;28;20394;-59
2022/11/21 09:18:44;;;;;;;52.35;48.65;;;3.20;99.90;;;;;;5071493;28;20377;-59
2022/11/21 09:21:20;;;;;;;55.88;51.72;;;3.50;99.90;;;;;;5072369;28;20372;-59
2022/11/21 09:23:45;;;;;;;52.83;49.30;;;3.10;99.90;;;;;;5070073;28;20548;-57
2022/11/21 09:26:11;;;;;;;46.08;43.00;;;2.80;99.90;;;;;;5065660;28;20792;-57
2022/11/21 09:28:37;;;;;;;47.35;43.97;;;2.90;99.90;;;;;;5067705;28;20560;-60
2022/11/21 09:31:04;;;;;;;47.10;43.85;;;3.00;99.90;;;;;;5063569;28;20393;-58
2022/11/21 09:33:30;;;;;;;46.90;43.55;;;2.70;99.90;;;;;;5062809;28;20639;-58
2022/11/21 09:35:59;;;;;;;43.40;40.20;;;2.60;99.90;;;;;;5060607;28;20687;-58
2022/11/21 09:38:25;;;;;;;46.33;43.13;;;2.60;99.90;;;;;;5062402;28;20433;-57
2022/11/21 09:40:59;;;;;;;49.75;46.20;;;2.60;99.90;;;;;;5065974;28;20378;-58
2022/11/21 09:44:05;;;;;;;49.42;45.92;;;2.70;99.90;;;;;;5065168;28;20689;-56
2022/11/21 09:46:38;;;;;;;43.95;40.95;;;2.80;99.90;;;;;;5066653;28;20378;-57
2022/11/21 09:49:11;;;;;;;51.58;47.95;;;2.80;99.90;;;;;;5067997;28;20397;-57
2022/11/21 09:51:40;;;;;;;46.33;43.13;;;2.70;99.90;;;;;;5067759;28;20381;-55
2022/11/21 09:54:22;;;;;;;43.47;40.38;;;2.30;99.90;;;;;;5067283;28;20994;-59
2022/11/21 09:56:48;;;;;;;39.40;36.45;;;1.90;99.90;;;;;;5066566;28;20402;-58
2022/11/21 09:59:28;;;;;;;40.17;37.28;;;1.90;99.90;;;;;;5072322;28;20462;-58
2022/11/21 10:01:55;;;;;;;37.80;34.97;;;2.00;99.90;;;;;;5078237;28;20476;-59
2022/11/21 10:04:21;;;;;;;39.65;36.70;;;1.80;99.90;;;;;;5084551;28;20429;-60
2022/11/21 10:06:55;;;;;;;36.83;34.03;;;1.60;99.90;;;;;;5085530;28;20465;-59
2022/11/21 10:09:40;;;;;;;37.95;35.17;;;1.70;99.90;;;;;;5085592;28;20393;-58
2022/11/21 10:12:41;;;;;;;36.60;33.83;;;1.60;99.90;;;;;;5079727;28;20940;-54
2022/11/21 10:15:21;;;;;;;35.90;33.13;;;1.60;99.90;;;;;;5079356;28;20409;-52
2022/11/21 10:18:06;;;;;;;40.85;37.25;;;1.40;99.90;;;;;;5077897;28;20405;-59
2022/11/21 10:20:32;;;;;;;42.28;39.17;;;1.40;99.90;;;;;;5079527;28;20531;-60
2022/11/21 10:23:22;;;;;;;38.88;36.03;;;1.40;99.90;;;;;;5075783;28;20484;-60
2022/11/21 10:25:56;;;;;;;40.53;37.33;;;1.50;99.90;;;;;;5077466;28;20408;-60
2022/11/21 10:28:37;;;;;;;40.53;37.45;;;1.70;99.90;;;;;;5079063;28;20428;-60
2022/11/21 10:31:07;;;;;;;34.72;32.03;;;2.00;99.90;;;;;;5078080;28;20385;-57
2022/11/21 10:33:35;;;;;;;37.35;34.72;;;1.90;99.90;;;;;;5077422;28;20569;-59
2022/11/21 10:36:11;;;;;;;35.75;33.20;;;2.10;99.90;;;;;;5076189;28;20385;-59
2022/11/21 10:38:42;;;;;;;36.78;34.15;;;2.40;99.90;;;;;;5075006;28;20684;-55
2022/11/21 10:41:24;;;;;;;39.28;36.47;;;2.60;99.90;;;;;;5077586;28;20715;-58
2022/11/21 10:47:29;;;;;;;37.53;35.00;;;2.50;99.90;;;;;;5020873;28;20917;-59
2022/11/21 10:50:14;;;;;;;34.42;32.00;;;2.60;99.90;;;;;;5083568;28;20370;-59
2022/11/21 10:52:48;;;;;;;34.20;31.90;;;2.50;99.90;;;;;;5083104;28;20441;-57
2022/11/21 10:55:16;;;;;;;33.05;30.85;;;2.40;99.90;;;;;;5085798;28;21029;-58
2022/11/21 10:57:49;;;;;;;34.08;31.73;;;2.40;99.90;;;;;;5085835;28;20405;-60
2022/11/21 11:00:21;;;;;;;31.63;29.33;;;2.50;99.90;;;;;;5086506;28;20393;-60
2022/11/21 11:02:56;;;;;;;32.00;29.77;;;2.80;99.90;;;;;;5085472;28;20386;-60
2022/11/21 11:05:26;;;;;;;30.67;28.48;;;3.00;99.90;;;;;;5085232;28;20497;-58
2022/11/21 11:08:06;;;;;;;30.40;28.38;;;3.20;99.90;;;;;;5086824;28;20406;-60
2022/11/21 11:10:39;;;;;;;34.05;31.85;;;3.30;99.90;;;;;;5088091;28;20486;-59
2022/11/21 11:16:11;;;;;;;29.42;27.33;;;3.00;99.90;;;;;;5090030;28;20382;-60
2022/11/21 11:18:59;;;;;;;30.20;28.30;;;3.10;99.90;;;;;;5088084;28;20871;-60
2022/11/21 11:21:28;;;;;;;33.17;31.10;;;3.50;99.90;;;;;;5085859;28;20401;-58
2022/11/21 11:24:19;;;;;;;33.00;30.73;;;3.80;99.90;;;;;;5087485;28;20531;-59
2022/11/21 11:26:48;;;;;;;30.33;28.52;;;3.70;99.90;;;;;;5090267;28;20409;-58
2022/11/21 11:29:17;;;;;;;35.83;33.72;;;3.70;99.90;;;;;;5090490;28;20401;-61
2022/11/21 11:31:49;;;;;;;35.00;32.80;;;3.90;99.90;;;;;;5090690;28;20385;-58
2022/11/21 11:34:18;;;;;;;36.60;34.35;;;3.90;99.90;;;;;;5089899;28;20378;-59
2022/11/21 11:37:03;;;;;;;35.05;32.85;;;4.00;99.90;;;;;;5090181;28;20390;-59
2022/11/21 11:39:50;;;;;;;33.03;30.88;;;3.70;99.90;;;;;;5085989;28;20412;-59
2022/11/21 11:48:38;;;;;;;54.13;50.83;;;4.30;99.90;;;;;;5080858;28;20401;-59
2022/11/21 11:51:14;;;;;;;54.28;51.03;;;4.10;99.90;;;;;;5080079;28;20621;-58
2022/11/21 11:53:45;;;;;;;59.45;55.97;;;4.20;99.90;;;;;;5081199;28;20386;-55
2022/11/21 11:56:19;;;;;;;53.72;50.42;;;4.20;99.90;;;;;;5082389;28;20392;-55
2022/11/21 11:58:56;;;;;;;44.08;41.10;;;4.00;99.90;;;;;;5083874;28;20477;-57
2022/11/21 12:01:34;;;;;;;54.50;51.15;;;4.40;99.90;;;;;;5083235;28;20378;-59
2022/11/21 12:04:12;;;;;;;64.35;60.60;;;4.90;99.90;;;;;;5082833;28;20497;-59
2022/11/21 12:06:56;;;;;;;70.40;66.53;;;5.40;99.90;;;;;;5083369;28;20378;-59
2022/11/21 12:09:43;;;;;;;87.75;82.82;;;6.00;99.90;;;;;;5084252;28;20493;-59
2022/11/21 12:12:15;;;;;;;76.50;72.17;;;5.80;99.90;;;;;;5083406;28;20457;-59
2022/11/21 12:18:08;;;;;;;81.95;77.57;;;6.20;99.90;;;;;;5082197;28;20416;-59
2022/11/21 12:20:38;;;;;;;66.27;62.47;;;6.50;99.90;;;;;;5077960;28;20400;-58
2022/11/21 12:23:06;;;;;;;76.47;71.67;;;6.60;99.90;;;;;;5078371;28;20897;-60
2022/11/21 12:25:40;;;;;;;61.75;58.15;;;6.30;99.90;;;;;;5079230;28;20416;-59
2022/11/21 12:28:19;;;;;;;71.55;67.57;;;5.70;99.90;;;;;;5078727;28;20849;-59
2022/11/21 12:31:07;;;;;;;78.07;73.88;;;5.40;99.90;;;;;;5079424;28;20385;-60
2022/11/21 12:33:41;;;;;;;77.90;73.65;;;5.70;99.90;;;;;;5078586;28;20378;-60
2022/11/21 12:36:23;;;;;;;80.35;76.10;;;5.90;99.90;;;;;;5078867;28;21046;-60
2022/11/21 12:39:31;;;;;;;82.80;78.35;;;6.40;99.90;;;;;;5077780;28;20414;-59
2022/11/21 12:45:30;;;;;;;96.55;91.40;;;6.70;99.90;;;;;;5081158;28;20412;-59
2022/11/21 12:54:32;;;;;;;126.85;120.15;;;7.60;99.90;;;;;;5081051;28;20828;-60
2022/11/21 12:57:14;;;;;;;133.43;126.53;;;7.60;99.90;;;;;;5081376;28;20398;-60
2022/11/21 12:59:56;;;;;;;170.33;161.13;;;8.00;99.90;;;;;;5083028;28;20382;-58
2022/11/21 13:02:34;;;;;;;161.98;153.43;;;8.10;99.90;;;;;;5082567;28;20416;-57
2022/11/21 13:05:03;;;;;;;178.80;169.48;;;8.10;99.90;;;;;;5079152;28;20390;-59
2022/11/21 13:07:30;;;;;;;164.38;155.95;;;7.90;99.90;;;;;;5075859;28;20398;-57
2022/11/21 13:09:58;;;;;;;170.43;161.43;;;7.70;99.90;;;;;;5070865;28;20399;-59
2022/11/21 13:12:37;;;;;;;164.90;156.43;;;7.50;99.90;;;;;;5074261;28;20924;-59
2022/11/21 13:15:32;;;;;;;150.30;142.57;;;7.60;99.90;;;;;;5073527;28;20390;-55
2022/11/21 13:18:23;;;;;;;147.13;139.52;;;8.00;99.90;;;;;;5074896;28;20378;-60
2022/11/21 13:20:51;;;;;;;167.77;159.32;;;8.50;99.90;;;;;;5070983;28;20393;-60
2022/11/21 13:23:40;;;;;;;159.35;151.23;;;8.80;99.90;;;;;;5074781;28;20835;-57